M I D A S
Marine Information and Data Acquisition System
Tripno 1686 of the Zeeleeuw from 2009-05-04 08:00:00 to 2009-05-04 17:00:00
Back to CruiseResearch ActivitiesStationsMapUnderway DataData graphs

EquipmentUnitsComment
TimeDGPSUTC
LatitudeDGPSDM.mWGS84
LongitudeDGPSDM.mWGS84
HeadingGyrodeg 
SOGDGPSknotsSpeed over ground
COGDGPSdegCourse over ground
DepthEcho soundermeters200 kHz
Missing or incorrect values are displayed as -999
Navigation data collected by the RV Zeeleeuw from 2009-05-04 08:00:00 to 2009-05-04 17:00:00
Time Latitude Longitude Heading SOG COG Depth
2009-05-04 13:47:24 51°12.403 2°41.061 56.4 11.1 54 9
2009-05-04 13:48:24 51°12.512 2°41.297 56 11.1 53 9.1
2009-05-04 13:49:25 51°12.623 2°41.54 58.1 11.2 55 9.4
2009-05-04 13:50:24 51°12.726 2°41.78 59.2 11.2 58 9.5
2009-05-04 13:51:24 51°12.825 2°42.028 60.7 11.1 58 9.3
2009-05-04 13:52:24 51°12.921 2°42.281 61.5 11.1 60 9.1
2009-05-04 13:53:24 51°13.013 2°42.536 62.3 11 60 9
2009-05-04 13:54:24 51°13.096 2°42.797 67.4 11 66 8.6
2009-05-04 13:55:24 51°13.166 2°43.067 70.1 11 66 8.2
2009-05-04 13:56:25 51°13.239 2°43.337 68.3 10.9 65 8.1
2009-05-04 13:57:24 51°13.311 2°43.594 67.6 10.7 66 7.8
2009-05-04 13:58:25 51°13.387 2°43.856 67.2 10.8 65 8.2
2009-05-04 13:59:24 51°13.461 2°44.111 68.3 10.8 66 8.9
2009-05-04 14:00:25 51°13.531 2°44.381 69.2 10.9 67 9.3
2009-05-04 14:01:24 51°13.603 2°44.64 67.2 10.9 65 9.4
2009-05-04 14:02:25 51°13.678 2°44.907 69.3 10.9 66 9.4
2009-05-04 14:03:25 51°13.748 2°45.174 69.1 10.9 68 9.4
2009-05-04 14:04:24 51°13.82 2°45.431 66.8 10.7 66 9.1
2009-05-04 14:05:25 51°13.894 2°45.698 68.9 10.9 68 8.9
2009-05-04 14:06:24 51°13.963 2°45.959 69 10.8 66 8.8
2009-05-04 14:07:25 51°14.038 2°46.225 68.2 10.8 64 8.5
2009-05-04 14:08:24 51°14.102 2°46.484 77.1 10.6 80 8.4
2009-05-04 14:09:24 51°14.121 2°46.763 86.7 10.7 84 8
2009-05-04 14:10:24 51°14.127 2°47.046 88.2 10.7 90 8.7
2009-05-04 14:11:24 51°14.128 2°47.332 90.3 10.9 91 9.7
2009-05-04 14:12:25 51°14.125 2°47.626 89.4 11 90 10.4
2009-05-04 14:13:24 51°14.124 2°47.909 90 10.9 90 10.6
2009-05-04 14:14:25 51°14.122 2°48.2 88.6 10.8 89 10.5
2009-05-04 14:15:24 51°14.146 2°48.476 79.1 10.7 80 10.5
2009-05-04 14:16:25 51°14.181 2°48.757 78.8 10.7 79 10.5
2009-05-04 14:17:24 51°14.215 2°49.031 78.5 10.7 81 10.5
2009-05-04 14:18:24 51°14.247 2°49.309 78.8 10.7 80 10.5
2009-05-04 14:19:25 51°14.28 2°49.59 79.9 10.6 81 10.2
2009-05-04 14:20:24 51°14.312 2°49.862 79.7 10.7 79 9.8
2009-05-04 14:21:25 51°14.344 2°50.145 78.4 10.6 77 9.6
2009-05-04 14:22:24 51°14.373 2°50.419 80.3 10.7 82 9.2
2009-05-04 14:23:25 51°14.404 2°50.702 79.2 10.6 79 8.9
2009-05-04 14:24:24 51°14.435 2°50.973 80 10.6 78 8.7
2009-05-04 14:25:25 51°14.467 2°51.255 79.4 10.7 79 8.6
2009-05-04 14:26:24 51°14.497 2°51.529 79.5 10.7 79 8.6
2009-05-04 14:27:25 51°14.536 2°51.81 77.1 10.7 78 8.6
2009-05-04 14:28:25 51°14.557 2°52.089 86.3 10.7 88 8.5
2009-05-04 14:29:24 51°14.548 2°52.371 92.7 10.9 93 8.4
2009-05-04 14:30:25 51°14.532 2°52.664 94.3 11 93 8
2009-05-04 14:31:24 51°14.517 2°52.949 90.8 11.1 97 7.7
2009-05-04 14:32:25 51°14.513 2°53.242 89.8 10.9 94 7.1
2009-05-04 14:33:24 51°14.511 2°53.529 86 11.3 84 8.6
2009-05-04 14:34:24 51°14.525 2°53.82 83.8 11 86 9.1
2009-05-04 14:35:24 51°14.538 2°54.112 90.4 11.1 91 9.7
2009-05-04 14:36:25 51°14.522 2°54.402 92.3 11 97 9.8
2009-05-04 14:37:25 51°14.481 2°54.685 103.7 11 108 9.6
2009-05-04 14:38:24 51°14.413 2°54.947 113 11.1 115 9.4
2009-05-04 14:39:25 51°14.313 2°55.2 132.2 10.5 134 9.7
2009-05-04 14:40:25 51°14.193 2°55.356 145.3 8.3 146 9.4
2009-05-04 14:41:26 51°14.085 2°55.458 154 7.1 154 9.3